Bronson, Florida
Current Conditions -  °F | °C
As of 10:53 AM on Thursday 30 Oct 2014 (Local Time) from KGNV Reporting Station
Overcast Overcast  
Wind Chill: 68°   Ceiling: 600
Heat Index: 68°   Visibility: 10mi
Dew Point: 65°   Wind: 0mph
Humidity: 90%   Direction: NA
Pressure: 30"   Gusts: NA
Location:  29.45°N, 82.64°W
Report Text: KGNV 301453Z 00000KT 10SM OVC006 20/18 A3000 RMK AO2 CIG 005V010 SLP158 T02000183 50005
Loading
Personal Weather Stations






























Interactive Weather Map
Tropical Storm Tracking
New forecast layout! Learn more

10-Day Weather Forecast

Advertisements
Track Severe Weather on mobile